Time;durP1;ratioP1;P1;durP2;ratioP2;P2;SDS_P1;SDS_P2;PMS_P1;PMS_P2;Temp;Humidity;BMP_temperature;BMP_pressure;BME280_temperature;BME280_humidity;BME280_pressure;Samples;Min_cycle;Max_cycle;Signal;HPM_P1;HPM_P2
2022/04/05 00:01:51;;;;;;;9.73;8.83;;;5.50;99.90;;;;;;5050104;28;20267;-51
2022/04/05 00:04:21;;;;;;;10.03;9.07;;;5.50;99.90;;;;;;5051242;28;20240;-52
2022/04/05 00:06:49;;;;;;;8.43;7.63;;;5.50;99.90;;;;;;5051445;28;20291;-51
2022/04/05 00:09:17;;;;;;;9.23;8.33;;;5.50;99.90;;;;;;5051810;28;20209;-52
2022/04/05 00:11:45;;;;;;;10.00;9.03;;;5.50;99.90;;;;;;5051214;28;20263;-51
2022/04/05 00:14:14;;;;;;;8.77;7.97;;;5.60;99.90;;;;;;5051784;28;20275;-52
2022/04/05 00:16:42;;;;;;;9.23;8.33;;;5.50;99.90;;;;;;5051664;28;20251;-51
2022/04/05 00:19:10;;;;;;;7.70;7.00;;;5.60;99.90;;;;;;5051243;28;20249;-52
2022/04/05 00:21:40;;;;;;;9.50;8.60;;;5.60;99.90;;;;;;5050981;28;20292;-52
2022/04/05 00:24:08;;;;;;;8.77;7.97;;;5.50;99.90;;;;;;5051490;28;20201;-52
2022/04/05 00:26:36;;;;;;;8.90;8.00;;;5.60;99.90;;;;;;5051425;28;20625;-52
2022/04/05 00:29:04;;;;;;;8.90;8.00;;;5.60;99.90;;;;;;5051413;28;20207;-52
2022/04/05 00:31:33;;;;;;;9.30;8.43;;;5.60;99.90;;;;;;5050744;28;20237;-52
2022/04/05 00:34:01;;;;;;;8.07;7.30;;;5.60;99.90;;;;;;5050587;28;20255;-52
2022/04/05 00:36:29;;;;;;;8.63;7.83;;;5.60;99.90;;;;;;5051333;28;20205;-52
2022/04/05 00:38:58;;;;;;;8.37;7.57;;;5.70;99.90;;;;;;5051602;28;20255;-51
2022/04/05 00:41:27;;;;;;;8.80;8.00;;;5.70;99.90;;;;;;5051050;28;20232;-51
2022/04/05 00:43:55;;;;;;;7.97;7.17;;;5.70;99.90;;;;;;5050783;28;20623;-52
2022/04/05 00:46:23;;;;;;;7.80;7.10;;;5.60;99.90;;;;;;5050807;28;20202;-51
2022/04/05 00:48:55;;;;;;;7.87;7.17;;;5.70;99.90;;;;;;5050460;28;20246;-52
2022/04/05 00:51:23;;;;;;;6.97;6.30;;;5.70;99.90;;;;;;5050266;28;20218;-52
2022/04/05 00:53:53;;;;;;;8.30;7.50;;;5.70;99.90;;;;;;5050060;28;20193;-51
2022/04/05 00:56:23;;;;;;;7.43;6.73;;;5.70;99.90;;;;;;5050104;28;20592;-52
2022/04/05 00:58:53;;;;;;;6.77;6.17;;;5.70;99.90;;;;;;5050586;28;20213;-51
2022/04/05 01:01:24;;;;;;;7.90;7.20;;;5.70;99.90;;;;;;5049940;28;20235;-52
2022/04/05 01:03:53;;;;;;;7.13;6.50;;;5.70;99.90;;;;;;5050117;28;20233;-51
2022/04/05 01:06:24;;;;;;;7.40;6.70;;;5.70;99.90;;;;;;5050669;28;20205;-51
2022/04/05 01:08:53;;;;;;;6.80;6.20;;;5.80;99.90;;;;;;5050106;28;20661;-51
2022/04/05 01:11:23;;;;;;;7.27;6.57;;;5.80;99.90;;;;;;5050134;28;20271;-52
2022/04/05 01:13:52;;;;;;;6.80;6.20;;;5.80;99.90;;;;;;5050149;28;20237;-52
2022/04/05 01:16:21;;;;;;;7.10;6.50;;;5.80;99.90;;;;;;5050774;28;20204;-51
2022/04/05 01:18:50;;;;;;;6.60;6.00;;;5.80;99.90;;;;;;5054615;28;20707;-51
2022/04/05 01:21:19;;;;;;;7.50;6.90;;;5.80;99.90;;;;;;5053457;28;20230;-52
2022/04/05 01:24:08;;;;;;;7.40;6.80;;;5.80;99.90;;;;;;5054356;28;20224;-51
2022/04/05 01:26:41;;;;;;;7.47;6.77;;;5.80;99.90;;;;;;5054953;28;20216;-51
2022/04/05 01:29:09;;;;;;;8.43;6.90;;;5.80;99.90;;;;;;5055004;28;20220;-52
2022/04/05 01:31:39;;;;;;;7.10;6.50;;;5.80;99.90;;;;;;5054051;28;20232;-51
2022/04/05 01:34:08;;;;;;;7.03;6.43;;;5.80;99.90;;;;;;5054237;28;20988;-52
2022/04/05 01:36:41;;;;;;;7.77;7.07;;;5.80;99.90;;;;;;5054393;28;20255;-52
2022/04/05 01:39:11;;;;;;;7.77;7.07;;;5.90;99.90;;;;;;5054676;28;20548;-51
2022/04/05 01:41:39;;;;;;;7.73;7.03;;;5.80;99.90;;;;;;5054138;28;20924;-52
2022/04/05 01:44:08;;;;;;;7.93;7.03;;;5.90;99.90;;;;;;5054396;28;20212;-51
2022/04/05 01:46:36;;;;;;;7.43;6.73;;;5.90;99.90;;;;;;5053838;28;20667;-51
2022/04/05 01:49:07;;;;;;;7.80;6.97;;;5.90;99.90;;;;;;5054315;28;20740;-51
2022/04/05 01:51:37;;;;;;;8.00;7.20;;;5.90;99.90;;;;;;5054427;28;20233;-51
2022/04/05 01:54:06;;;;;;;7.27;6.57;;;5.90;99.90;;;;;;5053268;28;20583;-51
2022/04/05 01:56:42;;;;;;;7.53;6.83;;;5.90;99.90;;;;;;5054588;28;20217;-52
2022/04/05 01:59:10;;;;;;;7.60;6.90;;;5.90;99.90;;;;;;5053883;28;20209;-51
2022/04/05 02:01:39;;;;;;;7.33;6.73;;;5.90;99.90;;;;;;5054012;28;20283;-52
2022/04/05 02:04:09;;;;;;;7.70;7.00;;;5.90;99.90;;;;;;5053849;28;20200;-51
2022/04/05 02:06:38;;;;;;;6.80;6.20;;;6.00;99.90;;;;;;5053186;28;20707;-51
2022/04/05 02:09:06;;;;;;;6.93;6.23;;;6.00;99.90;;;;;;5054033;28;20252;-51
2022/04/05 02:11:36;;;;;;;7.47;6.77;;;6.00;99.90;;;;;;5053246;28;20289;-52
2022/04/05 02:14:04;;;;;;;7.23;6.53;;;5.90;99.90;;;;;;5053610;28;20240;-52
2022/04/05 02:16:32;;;;;;;6.87;6.27;;;6.00;99.90;;;;;;5053828;28;20231;-51
2022/04/05 02:19:00;;;;;;;6.63;6.03;;;6.00;99.90;;;;;;5053583;28;20210;-51
2022/04/05 02:21:28;;;;;;;7.80;7.03;;;6.00;99.90;;;;;;5053292;28;20230;-52
2022/04/05 02:23:56;;;;;;;6.80;6.20;;;6.00;99.90;;;;;;5053402;28;20205;-52
2022/04/05 02:26:25;;;;;;;6.60;6.00;;;6.10;99.90;;;;;;5053764;28;20310;-52
2022/04/05 02:28:54;;;;;;;7.43;6.63;;;6.10;99.90;;;;;;5053351;28;20248;-51
2022/04/05 02:31:22;;;;;;;6.10;5.60;;;6.10;99.90;;;;;;5053393;28;20244;-52
2022/04/05 02:33:51;;;;;;;6.97;6.37;;;6.10;99.90;;;;;;5053073;28;20681;-52
2022/04/05 02:36:19;;;;;;;6.53;5.87;;;6.10;99.90;;;;;;5053526;28;20212;-52
2022/04/05 02:38:48;;;;;;;6.37;5.87;;;6.10;99.90;;;;;;5053306;28;20832;-52
2022/04/05 02:41:16;;;;;;;6.57;5.97;;;6.10;99.90;;;;;;5053549;28;20861;-52
2022/04/05 02:43:45;;;;;;;6.60;6.00;;;6.10;99.90;;;;;;5052933;28;20294;-52
2022/04/05 02:46:14;;;;;;;6.77;6.17;;;6.10;99.90;;;;;;5053068;28;20566;-52
2022/04/05 02:48:45;;;;;;;7.00;6.30;;;6.10;99.90;;;;;;5053389;28;20252;-52
2022/04/05 02:51:14;;;;;;;6.00;5.50;;;6.10;99.90;;;;;;5053148;28;20227;-52
2022/04/05 02:53:43;;;;;;;6.13;5.53;;;6.10;99.90;;;;;;5052234;28;20211;-51
2022/04/05 02:56:13;;;;;;;5.20;4.70;;;6.20;99.90;;;;;;5053007;28;20288;-52
2022/04/05 02:58:43;;;;;;;5.77;5.27;;;6.20;99.90;;;;;;5053236;28;20252;-52
2022/04/05 03:01:11;;;;;;;6.57;5.77;;;6.20;99.90;;;;;;5052644;28;20235;-52
2022/04/05 03:03:41;;;;;;;6.33;5.80;;;6.20;99.90;;;;;;5052487;28;20213;-52
2022/04/05 03:06:10;;;;;;;6.50;5.23;;;6.20;99.90;;;;;;5052992;28;20246;-52
2022/04/05 03:08:38;;;;;;;5.37;4.87;;;6.20;99.90;;;;;;5052566;28;20285;-51
2022/04/05 03:11:07;;;;;;;5.90;5.40;;;6.20;99.90;;;;;;5052880;28;20232;-52
2022/04/05 03:13:35;;;;;;;5.40;4.90;;;6.30;99.90;;;;;;5052294;28;20680;-52
2022/04/05 03:16:03;;;;;;;4.73;4.37;;;6.30;99.90;;;;;;5052904;28;20205;-52
2022/04/05 03:18:31;;;;;;;5.70;5.20;;;6.30;99.90;;;;;;5052768;28;20786;-52
2022/04/05 03:21:01;;;;;;;4.30;4.00;;;6.30;99.90;;;;;;5052688;28;20487;-51
2022/04/05 03:23:29;;;;;;;5.13;4.73;;;6.40;99.90;;;;;;5052119;28;20427;-52
2022/04/05 03:25:58;;;;;;;5.10;4.70;;;6.40;99.90;;;;;;5052647;28;20213;-51
2022/04/05 03:28:26;;;;;;;6.00;5.40;;;6.40;99.90;;;;;;5052584;28;20214;-52
2022/04/05 03:30:54;;;;;;;5.33;4.77;;;6.40;99.90;;;;;;5042417;28;20238;-52
2022/04/05 03:33:22;;;;;;;7.10;6.00;;;6.40;99.90;;;;;;5031700;28;20679;-52
2022/04/05 03:35:54;;;;;;;6.30;5.70;;;6.40;99.90;;;;;;5032188;28;20315;-52
2022/04/05 03:38:23;;;;;;;4.93;4.53;;;6.50;99.90;;;;;;5048813;28;20215;-52
2022/04/05 03:40:52;;;;;;;5.70;5.20;;;6.50;99.90;;;;;;5051589;28;20283;-52
2022/04/05 03:43:20;;;;;;;6.93;6.23;;;6.50;99.90;;;;;;5051674;28;20229;-52
2022/04/05 03:45:49;;;;;;;4.83;4.43;;;6.50;99.90;;;;;;5052151;28;20678;-52
2022/04/05 03:48:18;;;;;;;4.83;4.43;;;6.50;99.90;;;;;;5051946;28;20259;-52
2022/04/05 03:50:46;;;;;;;5.57;5.07;;;6.50;99.90;;;;;;5052006;28;20229;-52
2022/04/05 03:53:15;;;;;;;6.77;6.00;;;6.50;99.90;;;;;;5051881;28;20258;-52
2022/04/05 03:55:44;;;;;;;5.07;4.67;;;6.50;99.90;;;;;;5052090;28;20782;-51
2022/04/05 03:58:13;;;;;;;6.70;5.47;;;6.50;99.90;;;;;;5052032;28;20220;-52
2022/04/05 04:00:41;;;;;;;5.60;5.00;;;6.60;99.90;;;;;;5051664;28;20225;-52
2022/04/05 04:03:09;;;;;;;7.07;6.30;;;6.60;99.90;;;;;;5051415;28;20233;-51
2022/04/05 04:05:37;;;;;;;6.60;5.97;;;6.60;99.90;;;;;;5051683;28;20736;-52
2022/04/05 04:08:06;;;;;;;5.83;5.27;;;6.60;99.90;;;;;;5051721;28;20224;-52
2022/04/05 04:10:34;;;;;;;6.07;5.57;;;6.60;99.90;;;;;;5051574;28;20269;-51
2022/04/05 04:13:03;;;;;;;5.40;4.90;;;6.60;99.90;;;;;;5050875;28;20209;-51
2022/04/05 04:15:31;;;;;;;6.17;5.63;;;6.70;99.90;;;;;;5051447;28;20231;-52
2022/04/05 04:18:00;;;;;;;7.13;6.43;;;6.70;99.90;;;;;;5051581;28;20208;-51
2022/04/05 04:20:28;;;;;;;7.20;6.43;;;6.70;99.90;;;;;;5050392;28;20221;-51
2022/04/05 04:22:56;;;;;;;6.03;5.53;;;6.80;99.90;;;;;;5051248;28;20237;-51
2022/04/05 04:25:24;;;;;;;11.07;8.33;;;6.80;99.90;;;;;;5051152;28;20208;-51
2022/04/05 04:27:52;;;;;;;6.60;6.10;;;6.80;99.90;;;;;;5051546;28;20227;-51
2022/04/05 04:30:21;;;;;;;6.13;5.60;;;6.80;99.90;;;;;;5050816;28;20265;-52
2022/04/05 04:32:50;;;;;;;7.37;6.07;;;6.80;99.90;;;;;;5051009;28;20204;-51
2022/04/05 04:35:18;;;;;;;5.93;5.33;;;6.90;99.90;;;;;;5051160;28;20295;-51
2022/04/05 04:37:46;;;;;;;6.50;5.90;;;6.90;99.90;;;;;;5051584;28;20266;-52
2022/04/05 04:40:14;;;;;;;6.50;5.90;;;6.80;99.90;;;;;;5050767;28;20237;-51
2022/04/05 04:42:43;;;;;;;3.90;3.60;;;6.80;99.90;;;;;;5050631;28;20647;-52
2022/04/05 04:45:12;;;;;;;3.20;2.90;;;6.80;99.90;;;;;;5051040;28;20216;-52
2022/04/05 04:47:42;;;;;;;2.80;2.60;;;6.70;99.90;;;;;;5050302;28;20243;-51
2022/04/05 04:50:11;;;;;;;3.27;2.97;;;6.70;99.90;;;;;;5048143;28;21276;-51
2022/04/05 04:52:40;;;;;;;3.40;3.10;;;6.70;99.90;;;;;;5029337;28;20257;-52
2022/04/05 04:55:09;;;;;;;3.80;3.50;;;6.80;99.90;;;;;;5031345;28;20206;-52
2022/04/05 04:57:37;;;;;;;5.47;4.87;;;6.80;99.90;;;;;;5030871;28;20797;-52
2022/04/05 05:00:06;;;;;;;4.50;4.03;;;6.80;99.90;;;;;;5045609;28;20224;-52
2022/04/05 05:02:46;;;;;;;3.57;3.33;;;6.80;99.90;;;;;;5050555;28;20232;-51
2022/04/05 05:05:16;;;;;;;3.43;3.13;;;6.80;99.90;;;;;;5050977;28;20582;-51
2022/04/05 05:07:45;;;;;;;4.23;2.73;;;6.80;99.90;;;;;;5050975;28;20216;-51
2022/04/05 05:10:13;;;;;;;2.97;2.57;;;6.80;99.90;;;;;;5050512;28;20236;-52
2022/04/05 05:12:42;;;;;;;2.97;2.60;;;6.80;99.90;;;;;;5050284;28;20255;-50
2022/04/05 05:15:13;;;;;;;3.40;3.10;;;6.90;99.90;;;;;;5050724;28;20263;-52
2022/04/05 05:17:42;;;;;;;2.63;2.43;;;6.90;99.90;;;;;;5050641;28;20193;-52
2022/04/05 05:20:13;;;;;;;2.80;2.60;;;6.80;99.90;;;;;;5049666;28;20230;-51
2022/04/05 05:22:41;;;;;;;4.07;2.73;;;6.90;99.90;;;;;;5050647;28;20278;-50
2022/04/05 05:25:11;;;;;;;3.20;2.90;;;6.90;99.90;;;;;;5049705;28;20208;-52
2022/04/05 05:27:39;;;;;;;2.77;2.57;;;6.90;99.90;;;;;;5050313;28;20832;-51
2022/04/05 05:30:09;;;;;;;3.00;2.70;;;6.90;99.90;;;;;;5050689;28;20714;-52
2022/04/05 05:32:44;;;;;;;3.07;2.87;;;6.80;99.90;;;;;;5049797;28;20213;-51
2022/04/05 05:35:14;;;;;;;2.70;2.50;;;6.80;99.90;;;;;;5050623;28;20209;-52
2022/04/05 05:37:43;;;;;;;2.90;2.70;;;6.90;99.90;;;;;;5049568;28;20206;-51
2022/04/05 05:40:12;;;;;;;3.07;2.87;;;6.90;99.90;;;;;;5048165;28;20378;-51
2022/04/05 05:42:51;;;;;;;2.93;2.60;;;6.90;99.90;;;;;;5050093;28;20243;-51
2022/04/05 05:45:19;;;;;;;3.40;3.10;;;6.90;99.90;;;;;;5045749;28;20217;-51
2022/04/05 05:47:48;;;;;;;2.97;2.67;;;6.90;99.90;;;;;;5040444;28;20213;-52
2022/04/05 05:50:18;;;;;;;3.57;3.27;;;6.90;99.90;;;;;;5049717;28;20232;-52
2022/04/05 05:52:47;;;;;;;3.70;3.40;;;6.90;99.90;;;;;;5050104;28;20240;-51
2022/04/05 05:55:16;;;;;;;3.73;3.43;;;6.90;99.90;;;;;;5050005;28;20681;-51
2022/04/05 05:57:45;;;;;;;3.60;3.30;;;6.90;99.90;;;;;;5050192;28;20213;-52
2022/04/05 06:00:17;;;;;;;4.57;4.17;;;7.00;99.90;;;;;;5037489;28;20884;-52
2022/04/05 06:02:47;;;;;;;4.20;3.90;;;7.00;99.90;;;;;;5038003;28;20259;-52
2022/04/05 06:05:17;;;;;;;5.43;4.80;;;7.00;99.90;;;;;;5050137;28;20225;-52
2022/04/05 06:07:45;;;;;;;4.70;4.30;;;7.00;99.90;;;;;;5043856;28;20260;-52
2022/04/05 06:10:14;;;;;;;6.30;4.83;;;7.00;99.90;;;;;;5052840;28;20938;-52
2022/04/05 06:12:45;;;;;;;4.63;4.23;;;7.10;99.90;;;;;;5053339;28;20349;-51
2022/04/05 06:15:15;;;;;;;5.20;3.93;;;7.10;99.90;;;;;;5053697;28;20216;-52
2022/04/05 06:17:45;;;;;;;5.30;4.80;;;7.10;99.90;;;;;;5052782;28;20190;-52
2022/04/05 06:20:16;;;;;;;5.10;4.70;;;7.10;99.90;;;;;;5054002;28;20228;-51
2022/04/05 06:22:47;;;;;;;6.50;5.70;;;7.10;99.90;;;;;;5053542;28;20375;-51
2022/04/05 06:25:17;;;;;;;9.73;7.60;;;7.20;99.90;;;;;;5053950;28;20279;-52
2022/04/05 06:27:45;;;;;;;8.97;8.07;;;7.10;99.90;;;;;;5053935;28;20243;-51
2022/04/05 06:30:14;;;;;;;7.53;6.83;;;7.10;99.90;;;;;;5053608;28;20285;-51
2022/04/05 06:32:43;;;;;;;8.33;7.50;;;7.10;99.90;;;;;;5053164;28;20269;-52
2022/04/05 06:35:12;;;;;;;7.90;7.13;;;7.10;99.90;;;;;;5053287;28;20201;-52
2022/04/05 06:37:43;;;;;;;7.97;7.17;;;7.10;99.90;;;;;;5053548;28;20205;-51
2022/04/05 06:40:15;;;;;;;11.37;9.13;;;7.20;99.90;;;;;;5053664;28;20323;-51
2022/04/05 06:42:44;;;;;;;7.80;7.00;;;7.20;99.90;;;;;;5053290;28;20213;-51
2022/04/05 06:45:14;;;;;;;7.40;6.50;;;7.20;99.90;;;;;;5053205;28;20229;-52
2022/04/05 06:47:43;;;;;;;8.10;7.33;;;7.20;99.90;;;;;;5053719;28;20247;-52
2022/04/05 06:50:12;;;;;;;10.53;8.70;;;7.30;99.90;;;;;;5050276;28;20234;-51
2022/04/05 06:52:42;;;;;;;7.40;6.70;;;7.20;99.90;;;;;;5034656;28;20754;-51
2022/04/05 06:55:12;;;;;;;7.90;6.53;;;7.30;99.90;;;;;;5032869;28;20305;-52
2022/04/05 06:57:40;;;;;;;7.23;6.53;;;7.30;99.90;;;;;;5033091;28;20576;-52
2022/04/05 07:00:11;;;;;;;8.87;7.70;;;7.30;99.90;;;;;;5046436;28;20718;-52
2022/04/05 07:02:40;;;;;;;7.63;6.93;;;7.40;99.90;;;;;;5042379;28;20272;-51
2022/04/05 07:05:10;;;;;;;7.53;6.83;;;7.40;99.90;;;;;;5032632;28;20300;-52
2022/04/05 07:07:39;;;;;;;13.60;12.20;;;7.50;99.90;;;;;;5033431;28;20605;-51
2022/04/05 07:10:09;;;;;;;9.20;8.40;;;7.50;99.90;;;;;;5050287;28;20225;-52
2022/04/05 07:12:39;;;;;;;8.30;7.50;;;7.50;99.90;;;;;;5052702;28;20213;-51
2022/04/05 07:15:10;;;;;;;7.87;7.17;;;7.60;99.90;;;;;;5051650;28;20758;-52
2022/04/05 07:17:38;;;;;;;7.70;6.90;;;7.60;99.90;;;;;;5052600;28;20760;-51
2022/04/05 07:20:27;;;;;;;6.60;6.03;;;7.60;99.90;;;;;;5052635;28;20312;-52
2022/04/05 07:22:55;;;;;;;6.57;6.00;;;7.60;99.90;;;;;;5052312;28;20316;-52
2022/04/05 07:25:23;;;;;;;10.10;9.20;;;7.60;99.90;;;;;;5052474;28;20268;-52
2022/04/05 07:27:53;;;;;;;7.53;6.83;;;7.60;99.90;;;;;;5052543;28;20212;-52
2022/04/05 07:30:23;;;;;;;6.73;6.10;;;7.60;99.90;;;;;;5052754;28;20236;-52
2022/04/05 07:32:51;;;;;;;6.20;5.60;;;7.60;99.90;;;;;;5052083;28;20275;-52
2022/04/05 07:35:19;;;;;;;6.13;5.53;;;7.60;99.90;;;;;;5052431;28;20596;-52
2022/04/05 07:37:48;;;;;;;7.40;6.63;;;7.50;99.90;;;;;;5052410;28;20209;-52
2022/04/05 07:40:17;;;;;;;7.50;6.77;;;7.60;99.90;;;;;;5052389;28;20229;-52
2022/04/05 07:42:46;;;;;;;6.90;6.23;;;7.50;99.90;;;;;;5051502;28;20217;-52
2022/04/05 07:45:17;;;;;;;8.70;7.90;;;7.50;99.90;;;;;;5045714;28;20279;-52
2022/04/05 07:47:45;;;;;;;7.10;6.40;;;7.60;99.90;;;;;;5032004;28;20218;-52
2022/04/05 07:50:14;;;;;;;6.03;5.47;;;7.50;99.90;;;;;;5031485;28;20280;-51
2022/04/05 07:52:44;;;;;;;5.20;4.73;;;7.60;99.90;;;;;;5051536;28;20263;-52
2022/04/05 07:55:13;;;;;;;4.50;4.10;;;7.50;99.90;;;;;;5051828;28;20196;-52
2022/04/05 07:57:41;;;;;;;4.97;4.57;;;7.60;99.90;;;;;;5035776;28;20559;-52
2022/04/05 08:00:11;;;;;;;4.33;4.03;;;7.60;99.90;;;;;;5043016;28;20286;-53
2022/04/05 08:02:40;;;;;;;4.10;3.70;;;7.70;99.90;;;;;;5051353;28;20256;-52
2022/04/05 08:05:15;;;;;;;3.60;3.30;;;7.70;99.90;;;;;;5051296;28;20240;-52
2022/04/05 08:07:44;;;;;;;3.90;3.60;;;7.80;99.90;;;;;;5051378;28;20238;-51
2022/04/05 08:10:13;;;;;;;4.03;3.73;;;7.80;99.90;;;;;;5051418;28;20269;-52
2022/04/05 08:12:43;;;;;;;3.87;3.57;;;7.80;99.90;;;;;;5050476;28;20336;-52
2022/04/05 08:15:13;;;;;;;4.00;3.70;;;7.90;99.90;;;;;;5051892;28;20272;-51
2022/04/05 08:17:43;;;;;;;3.63;3.33;;;7.90;99.90;;;;;;5051506;28;20213;-52
2022/04/05 08:20:12;;;;;;;3.20;3.00;;;7.90;99.90;;;;;;5051178;28;20719;-51
2022/04/05 08:22:41;;;;;;;3.47;3.17;;;8.00;99.90;;;;;;5051302;28;20205;-51
2022/04/05 08:25:11;;;;;;;3.77;3.47;;;8.00;99.90;;;;;;5050905;28;20275;-51
2022/04/05 08:27:39;;;;;;;3.63;3.33;;;8.10;99.90;;;;;;5050969;28;20209;-52
2022/04/05 08:30:09;;;;;;;3.00;2.80;;;8.10;99.90;;;;;;5051026;28;20260;-52
2022/04/05 08:32:42;;;;;;;3.50;3.20;;;8.10;99.90;;;;;;5050703;28;20293;-51
2022/04/05 08:35:13;;;;;;;2.50;2.30;;;8.10;99.90;;;;;;5051223;28;20189;-51
2022/04/05 08:37:42;;;;;;;2.60;2.40;;;8.10;99.90;;;;;;5051166;28;20209;-51
2022/04/05 08:40:12;;;;;;;2.90;2.70;;;8.20;99.90;;;;;;5051230;28;20287;-51
2022/04/05 08:42:42;;;;;;;3.80;3.03;;;8.20;99.90;;;;;;5048480;28;20671;-51
2022/04/05 08:45:12;;;;;;;3.03;2.83;;;8.30;99.90;;;;;;5030151;28;20650;-52
2022/04/05 08:47:42;;;;;;;4.13;3.10;;;8.30;99.90;;;;;;5030541;28;20210;-51
2022/04/05 08:50:11;;;;;;;2.73;2.53;;;8.40;99.90;;;;;;5029801;28;20836;-52
2022/04/05 08:52:39;;;;;;;3.70;3.40;;;8.40;99.90;;;;;;5030705;28;20206;-51
2022/04/05 08:55:08;;;;;;;3.10;2.80;;;8.50;99.90;;;;;;5030283;28;20213;-52
2022/04/05 08:57:36;;;;;;;2.70;2.50;;;8.50;99.90;;;;;;5031343;28;20218;-51
2022/04/05 09:00:07;;;;;;;2.90;2.70;;;8.50;99.90;;;;;;5042092;28;20222;-52
2022/04/05 09:02:35;;;;;;;2.93;2.73;;;8.50;99.90;;;;;;5050622;28;20217;-52
2022/04/05 09:05:04;;;;;;;2.90;2.70;;;8.50;99.90;;;;;;5050599;28;20332;-52
2022/04/05 09:07:35;;;;;;;2.90;2.70;;;8.50;99.90;;;;;;5050924;28;20266;-52
2022/04/05 09:10:12;;;;;;;3.33;3.07;;;8.50;99.90;;;;;;5050675;28;20772;-52
2022/04/05 09:12:46;;;;;;;3.50;3.00;;;8.60;99.90;;;;;;5042303;28;20327;-51
2022/04/05 09:15:25;;;;;;;3.90;3.60;;;8.50;99.90;;;;;;5031132;28;20321;-52
2022/04/05 09:17:54;;;;;;;3.20;3.00;;;8.60;99.90;;;;;;5031325;28;20210;-52
2022/04/05 09:20:24;;;;;;;3.70;3.40;;;8.70;99.90;;;;;;5031181;28;20233;-52
2022/04/05 09:22:54;;;;;;;2.87;2.67;;;8.70;99.90;;;;;;5030246;28;20209;-52
2022/04/05 09:25:23;;;;;;;3.37;2.60;;;8.80;99.90;;;;;;5031243;28;20225;-52
2022/04/05 09:27:54;;;;;;;2.70;2.50;;;8.80;99.90;;;;;;5030842;28;20233;-51
2022/04/05 09:30:24;;;;;;;2.43;2.23;;;8.90;99.90;;;;;;5030746;28;20280;-52
2022/04/05 09:32:52;;;;;;;2.40;2.20;;;8.90;99.90;;;;;;5030384;28;20577;-51
2022/04/05 09:35:21;;;;;;;2.70;2.50;;;9.00;99.90;;;;;;5034488;28;20343;-52
2022/04/05 09:37:50;;;;;;;2.23;2.00;;;9.00;99.90;;;;;;5046790;28;20205;-52
2022/04/05 09:40:32;;;;;;;2.37;2.27;;;9.10;99.90;;;;;;5037731;28;20230;-51
2022/04/05 09:43:22;;;;;;;3.47;3.27;;;9.10;99.90;;;;;;5033855;28;20295;-51
2022/04/05 09:45:53;;;;;;;4.10;2.17;;;9.10;99.90;;;;;;5034598;28;20229;-52
2022/04/05 09:48:24;;;;;;;2.30;2.20;;;9.20;99.90;;;;;;5034351;28;20212;-51
2022/04/05 09:51:06;;;;;;;2.63;2.43;;;9.20;99.90;;;;;;5039001;28;20244;-52
2022/04/05 09:53:50;;;;;;;2.60;2.40;;;9.20;99.90;;;;;;5035144;28;20264;-51
2022/04/05 09:56:22;;;;;;;2.50;2.30;;;9.30;99.90;;;;;;5033934;28;20659;-52
2022/04/05 09:58:52;;;;;;;2.13;2.03;;;9.30;99.90;;;;;;5034809;28;20217;-51
2022/04/05 10:01:22;;;;;;;1.90;1.80;;;9.40;99.90;;;;;;5053982;28;20256;-52
2022/04/05 10:04:02;;;;;;;1.90;1.80;;;9.50;99.90;;;;;;5052308;28;20288;-52
2022/04/05 10:06:31;;;;;;;2.20;2.00;;;9.50;99.90;;;;;;5039536;28;20758;-51
2022/04/05 10:09:00;;;;;;;2.33;2.13;;;9.50;99.90;;;;;;5041945;28;20202;-52
2022/04/05 10:11:32;;;;;;;2.50;2.30;;;9.60;99.90;;;;;;5053746;28;20714;-51
2022/04/05 10:14:01;;;;;;;3.03;2.83;;;9.70;99.90;;;;;;5052903;28;20230;-52
2022/04/05 10:16:30;;;;;;;1.90;1.80;;;9.70;99.90;;;;;;5053724;28;20201;-51
2022/04/05 10:19:09;;;;;;;2.80;2.60;;;9.80;99.90;;;;;;5053795;28;20189;-51
2022/04/05 10:21:39;;;;;;;2.40;2.20;;;9.90;99.90;;;;;;5053609;28;20243;-52
2022/04/05 10:24:08;;;;;;;2.10;2.00;;;10.00;99.90;;;;;;5048032;28;20422;-51
2022/04/05 10:26:40;;;;;;;2.20;2.00;;;10.10;99.90;;;;;;5032269;28;20297;-51
2022/04/05 10:29:10;;;;;;;1.50;1.40;;;10.10;99.90;;;;;;5033362;28;20558;-51
2022/04/05 10:31:48;;;;;;;2.10;1.90;;;10.10;99.90;;;;;;5032584;28;20230;-52
2022/04/05 10:34:22;;;;;;;3.20;1.77;;;10.20;99.90;;;;;;5033246;28;20214;-51
2022/04/05 10:37:09;;;;;;;2.73;1.77;;;10.20;99.90;;;;;;5032863;28;20191;-52
2022/04/05 10:39:38;;;;;;;1.80;1.70;;;10.20;99.90;;;;;;5032776;28;20275;-51
2022/04/05 10:42:25;;;;;;;1.80;1.70;;;10.30;99.90;;;;;;5032439;28;20202;-51
2022/04/05 10:44:55;;;;;;;1.60;1.50;;;10.40;99.90;;;;;;5032923;28;20635;-51
2022/04/05 10:47:23;;;;;;;1.43;1.33;;;10.50;99.90;;;;;;5032752;28;20295;-51
2022/04/05 10:50:19;;;;;;;1.70;1.60;;;10.60;99.90;;;;;;5035395;28;20275;-52
2022/04/05 10:52:48;;;;;;;1.80;1.70;;;10.60;99.90;;;;;;5052373;28;20263;-51
2022/04/05 10:55:20;;;;;;;2.37;1.70;;;10.80;99.90;;;;;;5052434;28;20236;-51
2022/04/05 10:58:08;;;;;;;1.67;1.50;;;10.80;99.90;;;;;;5053002;28;20209;-51
2022/04/05 11:00:36;;;;;;;1.53;1.43;;;10.90;99.90;;;;;;5052511;28;20680;-51
2022/04/05 11:03:06;;;;;;;1.60;1.50;;;11.00;99.90;;;;;;5050401;28;20206;-52
2022/04/05 11:05:41;;;;;;;1.73;1.60;;;11.00;99.90;;;;;;5052004;28;20301;-51
2022/04/05 11:08:19;;;;;;;1.37;1.27;;;11.00;99.90;;;;;;5052566;28;20209;-52
2022/04/05 11:11:00;;;;;;;1.97;1.87;;;11.00;99.90;;;;;;5051559;28;20304;-52
2022/04/05 11:13:40;;;;;;;4.97;3.43;;;10.90;99.90;;;;;;5052035;28;20213;-51
2022/04/05 11:16:13;;;;;;;1.70;1.60;;;11.00;99.90;;;;;;5052080;28;20836;-51
2022/04/05 11:18:44;;;;;;;1.67;1.57;;;11.00;99.90;;;;;;5052495;28;20202;-51
2022/04/05 11:21:12;;;;;;;1.90;1.80;;;11.00;99.90;;;;;;5051994;28;20228;-52
2022/04/05 11:23:44;;;;;;;5.63;4.83;;;10.90;99.90;;;;;;5051008;28;20201;-52
2022/04/05 11:26:26;;;;;;;4.77;3.80;;;10.90;99.90;;;;;;5051192;28;20226;-52
2022/04/05 11:28:57;;;;;;;8.13;6.43;;;11.10;99.90;;;;;;5051853;28;20677;-52
2022/04/05 11:31:32;;;;;;;3.70;3.20;;;11.20;99.90;;;;;;5052182;28;20599;-52
2022/04/05 11:34:02;;;;;;;2.73;2.53;;;11.20;99.90;;;;;;5051496;28;20201;-52
2022/04/05 11:36:41;;;;;;;1.73;1.63;;;11.30;99.90;;;;;;5051696;28;20226;-52
2022/04/05 11:39:13;;;;;;;2.07;1.97;;;11.30;99.90;;;;;;5051092;28;20259;-51
2022/04/05 11:41:41;;;;;;;1.67;1.30;;;11.30;99.90;;;;;;5052203;28;20229;-52
2022/04/05 11:44:15;;;;;;;1.87;1.63;;;11.40;99.90;;;;;;5051646;28;20264;-52
2022/04/05 11:46:44;;;;;;;1.40;1.30;;;11.40;99.90;;;;;;5051869;28;20225;-52
2022/04/05 11:49:13;;;;;;;1.57;1.37;;;11.50;99.90;;;;;;5038213;28;20214;-52
2022/04/05 11:51:46;;;;;;;6.00;1.60;;;11.60;99.90;;;;;;5047248;28;20927;-52
2022/04/05 11:54:17;;;;;;;2.00;1.90;;;11.60;99.90;;;;;;5050542;28;20690;-51
2022/04/05 11:56:46;;;;;;;2.23;2.10;;;11.50;99.90;;;;;;5052111;28;20189;-52
2022/04/05 11:59:17;;;;;;;6.27;4.47;;;11.50;99.90;;;;;;5051121;28;20252;-52
2022/04/05 12:01:49;;;;;;;4.23;3.53;;;11.40;99.90;;;;;;5050568;28;20190;-53
2022/04/05 12:04:20;;;;;;;6.73;5.67;;;11.40;99.90;;;;;;5051449;28;20205;-52
2022/04/05 12:06:55;;;;;;;7.50;6.28;;;11.50;99.90;;;;;;5050355;28;20444;-52
2022/04/05 12:09:24;;;;;;;3.67;3.37;;;11.60;99.90;;;;;;5050603;28;20542;-52
2022/04/05 12:11:53;;;;;;;2.80;2.60;;;11.80;99.90;;;;;;5050480;28;20594;-51
2022/04/05 12:14:24;;;;;;;3.13;2.83;;;11.90;99.90;;;;;;5049537;28;20202;-51
2022/04/05 12:16:58;;;;;;;3.00;2.80;;;12.00;99.90;;;;;;5050866;28;20401;-51
2022/04/05 12:19:28;;;;;;;2.87;2.67;;;12.10;99.90;;;;;;5051321;28;20198;-52
2022/04/05 12:21:57;;;;;;;3.53;3.23;;;12.20;99.90;;;;;;5032821;28;20234;-52
2022/04/05 12:24:26;;;;;;;4.63;3.30;;;12.40;99.90;;;;;;5030518;28;20249;-51
2022/04/05 12:26:56;;;;;;;3.57;3.20;;;12.50;99.90;;;;;;5031064;28;20276;-51
2022/04/05 12:29:26;;;;;;;4.20;3.80;;;12.60;99.90;;;;;;5030707;28;20269;-52
2022/04/05 12:31:54;;;;;;;4.00;3.60;;;12.60;99.90;;;;;;5030496;28;20618;-52
2022/04/05 12:34:23;;;;;;;3.80;3.47;;;12.90;99.90;;;;;;5030856;28;20264;-52
2022/04/05 12:36:56;;;;;;;4.20;3.80;;;12.90;99.90;;;;;;5030979;28;20199;-52
2022/04/05 12:39:27;;;;;;;5.03;4.57;;;12.80;99.90;;;;;;5030214;28;20802;-52
2022/04/05 12:42:02;;;;;;;5.13;4.63;;;12.70;99.90;;;;;;5030406;28;20190;-51
2022/04/05 12:44:34;;;;;;;5.10;4.60;;;12.60;99.90;;;;;;5030814;28;20214;-52
2022/04/05 12:47:07;;;;;;;4.60;4.10;;;12.60;99.90;;;;;;5030511;28;20206;-52
2022/04/05 12:49:38;;;;;;;4.63;4.20;;;12.80;99.90;;;;;;5031059;28;20206;-52
2022/04/05 12:52:13;;;;;;;4.07;3.67;;;12.90;99.90;;;;;;5048827;28;20209;-52
2022/04/05 12:54:47;;;;;;;3.90;3.60;;;12.90;99.90;;;;;;5050220;28;20255;-52
2022/04/05 12:57:30;;;;;;;4.20;3.80;;;12.90;99.90;;;;;;5050052;28;20193;-52
2022/04/05 13:00:12;;;;;;;3.63;3.33;;;13.10;99.90;;;;;;5050006;28;20249;-52
2022/04/05 13:02:43;;;;;;;4.87;4.47;;;13.00;99.90;;;;;;5049382;28;20926;-52
2022/04/05 13:08:03;;;;;;;4.80;4.40;;;13.00;99.90;;;;;;5049907;28;20569;-53
2022/04/05 13:10:36;;;;;;;5.70;5.10;;;13.00;99.90;;;;;;5041178;28;20234;-53
2022/04/05 13:13:15;;;;;;;6.27;5.77;;;13.00;99.90;;;;;;5029044;28;20198;-52
2022/04/05 13:15:46;;;;;;;6.30;5.73;;;13.00;99.90;;;;;;5030651;28;20205;-52